createdAt,value
2019-01-30T00:01:50.429Z,8.17
2019-01-30T00:04:19.640Z,6.63
2019-01-30T00:06:48.950Z,8.80
2019-01-30T00:09:18.282Z,5.73
2019-01-30T00:11:48.529Z,7.70
2019-01-30T00:14:17.738Z,9.60
2019-01-30T00:16:46.940Z,7.63
2019-01-30T00:19:16.132Z,8.57
2019-01-30T00:21:45.378Z,6.77
2019-01-30T00:24:14.586Z,9.13
2019-01-30T00:26:43.820Z,9.50
2019-01-30T00:29:13.127Z,9.23
2019-01-30T00:31:42.363Z,8.70
2019-01-30T00:34:11.652Z,7.97
2019-01-30T00:36:41.380Z,10.30
2019-01-30T00:39:10.584Z,8.33
2019-01-30T00:41:42.774Z,9.43
2019-01-30T00:44:11.995Z,9.40
2019-01-30T00:46:41.216Z,8.77
2019-01-30T00:49:10.457Z,8.63
2019-01-30T00:51:39.709Z,8.53
2019-01-30T00:54:08.902Z,8.50
2019-01-30T00:56:38.291Z,7.93
2019-01-30T00:59:07.532Z,8.33
2019-01-30T01:01:36.729Z,8.73
2019-01-30T01:04:06.036Z,9.70
2019-01-30T01:06:35.302Z,8.47
2019-01-30T01:09:08.533Z,7.43
2019-01-30T01:11:37.935Z,7.30
2019-01-30T01:14:07.255Z,7.17
2019-01-30T01:16:36.485Z,7.87
2019-01-30T01:19:05.877Z,7.17
2019-01-30T01:21:35.191Z,8.53
2019-01-30T01:24:04.704Z,8.10
2019-01-30T01:26:35.071Z,8.47
2019-01-30T01:29:04.396Z,6.30
2019-01-30T01:31:33.591Z,7.77
2019-01-30T01:34:02.825Z,8.43
2019-01-30T01:36:32.171Z,6.63
2019-01-30T01:39:01.499Z,12.77
2019-01-30T01:41:30.690Z,9.87
2019-01-30T01:43:59.922Z,7.77
2019-01-30T01:46:29.131Z,8.27
2019-01-30T01:48:58.335Z,7.23
2019-01-30T01:51:27.578Z,8.27
2019-01-30T01:53:56.793Z,9.63
2019-01-30T01:56:25.984Z,6.60
2019-01-30T01:58:55.250Z,7.23
2019-01-30T02:01:24.636Z,8.40
2019-01-30T02:03:53.932Z,7.20
2019-01-30T02:06:23.240Z,7.10
2019-01-30T02:08:52.529Z,8.80
2019-01-30T02:11:21.833Z,8.20
2019-01-30T02:13:51.189Z,10.37
2019-01-30T02:16:20.376Z,7.33
2019-01-30T02:18:49.600Z,6.93
2019-01-30T02:21:19.208Z,9.23
2019-01-30T02:23:48.424Z,8.00
2019-01-30T02:26:17.660Z,8.30
2019-01-30T02:28:46.920Z,7.90
2019-01-30T02:31:16.147Z,7.83
2019-01-30T02:33:45.361Z,7.13
2019-01-30T02:36:14.623Z,6.87
2019-01-30T02:38:43.815Z,10.17
2019-01-30T02:41:13.105Z,7.07
2019-01-30T02:43:42.735Z,9.70
2019-01-30T02:46:11.931Z,7.93
2019-01-30T02:48:41.139Z,7.77
2019-01-30T02:51:10.358Z,10.10
2019-01-30T02:53:39.548Z,7.23
2019-01-30T02:56:08.747Z,7.00
2019-01-30T02:58:37.990Z,7.97
2019-01-30T03:01:07.674Z,7.73
2019-01-30T03:03:36.875Z,8.00
2019-01-30T03:06:06.293Z,8.10
2019-01-30T03:08:35.518Z,7.13
2019-01-30T03:11:04.866Z,9.03
2019-01-30T03:13:34.085Z,5.67
2019-01-30T03:16:03.359Z,6.30
2019-01-30T03:18:32.591Z,7.40
2019-01-30T03:21:01.844Z,5.93
2019-01-30T03:23:31.099Z,7.63
2019-01-30T03:26:00.366Z,6.93
2019-01-30T03:28:29.633Z,6.53
2019-01-30T03:31:15.851Z,5.83
2019-01-30T03:33:29.798Z,7.07
2019-01-30T03:35:59.012Z,5.97
2019-01-30T03:38:28.236Z,6.50
2019-01-30T03:40:57.462Z,4.70
2019-01-30T03:43:27.067Z,7.60
2019-01-30T03:45:56.545Z,7.80
2019-01-30T03:48:25.745Z,6.47
2019-01-30T03:50:55.011Z,6.37
2019-01-30T03:53:24.216Z,7.43
2019-01-30T03:55:53.513Z,6.30
2019-01-30T03:58:22.820Z,7.33
2019-01-30T04:00:52.097Z,5.30
2019-01-30T04:03:21.315Z,8.63
2019-01-30T04:05:50.564Z,6.87
2019-01-30T04:08:19.809Z,5.43
2019-01-30T04:10:49.027Z,7.17
2019-01-30T04:13:18.303Z,7.03
2019-01-30T04:15:47.499Z,8.30
2019-01-30T04:18:17.077Z,8.23
2019-01-30T04:20:46.339Z,6.00
2019-01-30T04:23:15.526Z,6.73
2019-01-30T04:25:44.722Z,6.97
2019-01-30T04:28:13.988Z,6.13
2019-01-30T04:30:43.189Z,7.17
2019-01-30T04:33:12.395Z,5.90
2019-01-30T04:35:41.694Z,6.10
2019-01-30T04:38:10.975Z,6.03
2019-01-30T04:40:40.191Z,6.67
2019-01-30T04:43:09.426Z,4.77
2019-01-30T04:45:38.777Z,6.57
2019-01-30T04:48:09.284Z,6.97
2019-01-30T04:50:38.813Z,7.00
2019-01-30T04:53:08.020Z,5.73
2019-01-30T04:55:37.238Z,5.77
2019-01-30T04:58:06.452Z,6.13
2019-01-30T05:00:35.679Z,5.87
2019-01-30T05:03:04.884Z,5.90
2019-01-30T05:05:34.195Z,6.70
2019-01-30T05:08:03.407Z,5.83
2019-01-30T05:10:32.785Z,6.00
2019-01-30T05:13:02.368Z,5.27
2019-01-30T05:15:31.577Z,5.63
2019-01-30T05:18:00.771Z,5.90
2019-01-30T05:20:30.075Z,6.00
2019-01-30T05:22:59.407Z,6.27
2019-01-30T05:25:29.053Z,6.57
2019-01-30T05:27:58.426Z,6.07
2019-01-30T05:30:29.577Z,5.13
2019-01-30T05:32:58.793Z,6.73
2019-01-30T05:35:28.312Z,8.00
2019-01-30T05:37:57.730Z,6.83
2019-01-30T05:40:28.153Z,5.97
2019-01-30T05:42:57.405Z,7.03
2019-01-30T05:45:26.903Z,8.77
2019-01-30T05:47:56.179Z,7.03
2019-01-30T05:50:25.505Z,6.73
2019-01-30T05:52:54.724Z,7.00
2019-01-30T05:55:23.907Z,7.87
2019-01-30T05:57:53.153Z,7.20
2019-01-30T06:00:27.403Z,5.93
2019-01-30T06:02:57.051Z,6.07
2019-01-30T06:05:26.446Z,5.10
2019-01-30T06:07:55.650Z,7.13
2019-01-30T06:10:25.083Z,9.53
2019-01-30T06:12:54.403Z,7.03
2019-01-30T06:15:24.158Z,5.13
2019-01-30T06:17:53.351Z,7.63
2019-01-30T06:20:27.435Z,6.83
2019-01-30T06:22:56.972Z,6.27
2019-01-30T06:25:26.365Z,6.23
2019-01-30T06:27:55.621Z,5.83
2019-01-30T06:30:25.105Z,5.97
2019-01-30T06:32:54.329Z,6.67
2019-01-30T06:35:23.555Z,5.90
2019-01-30T06:37:52.860Z,8.47
2019-01-30T06:40:24.970Z,6.37
2019-01-30T06:42:54.238Z,6.90
2019-01-30T06:45:24.354Z,6.40
2019-01-30T06:47:53.631Z,5.37
2019-01-30T06:50:24.178Z,4.57
2019-01-30T06:52:53.522Z,5.17
2019-01-30T06:55:22.766Z,6.90
2019-01-30T06:57:52.016Z,6.53
2019-01-30T07:00:23.295Z,4.37
2019-01-30T07:02:52.731Z,6.70
2019-01-30T07:05:26.468Z,5.87
2019-01-30T07:07:55.674Z,6.47
2019-01-30T07:10:26.759Z,8.40
2019-01-30T07:12:56.008Z,6.53
2019-01-30T07:15:25.419Z,5.63
2019-01-30T07:17:54.609Z,6.90
2019-01-30T07:20:23.830Z,5.70
2019-01-30T07:22:55.133Z,7.03
2019-01-30T07:25:24.489Z,5.77
2019-01-30T07:27:55.061Z,5.37
2019-01-30T07:30:32.608Z,5.07
2019-01-30T07:33:02.055Z,6.20
2019-01-30T07:35:31.315Z,6.13
2019-01-30T07:38:00.658Z,5.80
2019-01-30T07:40:32.019Z,4.80
2019-01-30T07:43:01.330Z,4.07
2019-01-30T07:45:31.872Z,6.07
2019-01-30T07:48:01.131Z,5.20
2019-01-30T07:50:30.323Z,5.90
2019-01-30T07:52:59.652Z,6.10
2019-01-30T07:55:29.007Z,5.10
2019-01-30T07:57:58.220Z,6.73
2019-01-30T08:00:30.014Z,4.53
2019-01-30T08:02:59.270Z,7.57
2019-01-30T08:05:28.483Z,7.80
2019-01-30T08:07:57.712Z,5.93
2019-01-30T08:10:26.976Z,6.37
2019-01-30T08:12:56.663Z,8.03
2019-01-30T08:15:27.215Z,6.90
2019-01-30T08:17:56.468Z,7.47
2019-01-30T08:20:25.682Z,5.40
2019-01-30T08:22:55.150Z,6.47
2019-01-30T08:25:25.041Z,9.23
2019-01-30T08:27:54.434Z,6.40
2019-01-30T08:30:31.432Z,6.97
2019-01-30T08:33:05.831Z,7.73
2019-01-30T08:35:33.636Z,6.83
2019-01-30T08:38:03.092Z,9.07
2019-01-30T08:40:32.448Z,6.30
2019-01-30T08:43:01.707Z,6.33
2019-01-30T08:45:32.579Z,4.47
2019-01-30T08:48:02.001Z,6.23
2019-01-30T08:50:31.924Z,7.57
2019-01-30T08:53:01.314Z,7.20
2019-01-30T08:55:30.847Z,8.33
2019-01-30T08:58:00.078Z,11.07
2019-01-30T09:00:30.095Z,7.53
2019-01-30T09:02:59.424Z,5.53
2019-01-30T09:05:28.654Z,8.00
2019-01-30T09:07:57.896Z,9.20
2019-01-30T09:10:27.374Z,10.00
2019-01-30T09:12:56.573Z,8.33
2019-01-30T09:15:26.610Z,9.70
2019-01-30T09:17:55.906Z,8.57
2019-01-30T09:20:25.449Z,10.03
2019-01-30T09:22:54.793Z,11.13
2019-01-30T09:25:25.892Z,10.80
2019-01-30T09:27:55.097Z,10.80
2019-01-30T09:30:29.727Z,8.77
2019-01-30T09:32:59.077Z,8.60
2019-01-30T09:35:28.406Z,11.97
2019-01-30T09:37:57.719Z,11.13
2019-01-30T09:40:27.561Z,8.67
2019-01-30T09:42:56.760Z,7.20
2019-01-30T09:45:27.197Z,9.40
2019-01-30T09:47:56.393Z,9.83
2019-01-30T09:50:25.596Z,12.03
2019-01-30T09:52:55.063Z,11.03
2019-01-30T09:55:24.720Z,11.83
2019-01-30T09:57:54.008Z,11.07
2019-01-30T10:00:31.701Z,11.80
2019-01-30T10:03:01.088Z,13.07
2019-01-30T10:05:30.301Z,12.47
2019-01-30T10:07:59.552Z,13.63
2019-01-30T10:10:34.802Z,11.13
2019-01-30T10:13:04.504Z,11.90
2019-01-30T10:15:36.164Z,13.10
2019-01-30T10:18:06.307Z,9.43
2019-01-30T10:20:36.306Z,11.87
2019-01-30T10:23:05.599Z,12.13
2019-01-30T10:25:35.263Z,15.33
2019-01-30T10:28:15.860Z,12.77
2019-01-30T10:30:38.037Z,12.27
2019-01-30T10:33:07.435Z,10.70
2019-01-30T10:35:36.527Z,11.63
2019-01-30T10:38:06.165Z,10.00
2019-01-30T10:40:35.556Z,11.43
2019-01-30T10:43:05.243Z,12.53
2019-01-30T10:45:34.688Z,9.80
2019-01-30T10:48:04.009Z,15.40
2019-01-30T10:50:33.238Z,12.30
2019-01-30T10:53:02.447Z,11.07
2019-01-30T10:55:32.945Z,13.30
2019-01-30T10:58:04.438Z,11.60
2019-01-30T11:00:52.925Z,10.40
2019-01-30T11:03:22.302Z,13.47
2019-01-30T11:05:51.487Z,8.13
2019-01-30T11:08:20.716Z,13.47
2019-01-30T11:10:51.002Z,11.53
2019-01-30T11:13:20.572Z,11.70
2019-01-30T11:15:49.808Z,13.83
2019-01-30T11:18:19.422Z,12.70
2019-01-30T11:20:48.624Z,16.60
2019-01-30T11:23:17.982Z,13.43
2019-01-30T11:25:49.157Z,13.20
2019-01-30T11:28:18.341Z,11.33
2019-01-30T11:30:47.538Z,14.80
2019-01-30T11:33:16.782Z,16.10
2019-01-30T11:35:45.996Z,11.77
2019-01-30T11:38:15.228Z,13.13
2019-01-30T11:40:44.490Z,15.03
2019-01-30T11:43:13.702Z,12.37
2019-01-30T11:45:44.810Z,15.87
2019-01-30T11:48:14.064Z,13.17
2019-01-30T11:50:43.653Z,15.43
2019-01-30T11:53:13.021Z,15.20
2019-01-30T11:55:42.317Z,13.20
2019-01-30T11:58:11.556Z,13.70
2019-01-30T12:00:59.781Z,9.50
2019-01-30T12:03:29.078Z,11.47
2019-01-30T12:05:58.304Z,12.27
2019-01-30T12:08:27.560Z,13.10
2019-01-30T12:10:56.758Z,15.17
2019-01-30T12:13:26.079Z,12.70
2019-01-30T12:15:55.750Z,13.30
2019-01-30T12:18:25.043Z,14.50
2019-01-30T12:20:54.266Z,14.13
2019-01-30T12:23:23.803Z,17.80
2019-01-30T12:25:52.999Z,14.67
2019-01-30T12:28:22.228Z,12.77
2019-01-30T12:30:51.561Z,16.27
2019-01-30T12:33:20.754Z,12.83
2019-01-30T12:35:49.948Z,14.03
2019-01-30T12:38:19.208Z,14.03
2019-01-30T12:40:48.411Z,13.57
2019-01-30T12:43:17.625Z,16.93
2019-01-30T12:45:46.966Z,13.80
2019-01-30T12:48:16.217Z,16.97
2019-01-30T12:50:45.454Z,13.47
2019-01-30T12:53:15.830Z,14.20
2019-01-30T12:55:45.111Z,14.80
2019-01-30T12:58:14.307Z,14.50
2019-01-30T13:00:45.036Z,13.70
2019-01-30T13:03:14.250Z,13.17
2019-01-30T13:05:44.061Z,13.70
2019-01-30T13:08:13.320Z,13.00
2019-01-30T13:10:42.518Z,19.27
2019-01-30T13:13:11.952Z,16.30
2019-01-30T13:15:41.173Z,14.00
2019-01-30T13:18:18.209Z,13.80
2019-01-30T13:20:44.382Z,10.73
2019-01-30T13:23:13.660Z,12.37
2019-01-30T13:25:42.884Z,17.00
2019-01-30T13:28:12.083Z,10.70
2019-01-30T13:30:43.735Z,13.17
2019-01-30T13:33:13.355Z,11.10
2019-01-30T13:35:42.687Z,11.33
2019-01-30T13:38:11.966Z,13.43
2019-01-30T13:40:42.621Z,11.47
2019-01-30T13:43:12.015Z,14.87
2019-01-30T13:45:42.880Z,11.63
2019-01-30T13:48:19.535Z,11.23
2019-01-30T13:50:49.107Z,12.20
2019-01-30T13:53:18.466Z,15.83
2019-01-30T13:55:47.750Z,13.97
2019-01-30T13:58:17.093Z,12.83
2019-01-30T14:00:46.438Z,11.60
2019-01-30T14:03:15.749Z,13.30
2019-01-30T14:05:45.046Z,13.63
2019-01-30T14:08:14.685Z,11.53
2019-01-30T14:10:44.012Z,11.50
2019-01-30T14:13:13.243Z,14.97
2019-01-30T14:15:42.568Z,14.33
2019-01-30T14:18:11.776Z,14.17
2019-01-30T14:20:43.133Z,11.77
2019-01-30T14:23:12.346Z,12.97
2019-01-30T14:25:41.546Z,13.57
2019-01-30T14:28:10.799Z,15.50
2019-01-30T14:30:41.053Z,15.03
2019-01-30T14:33:10.267Z,14.47
2019-01-30T14:35:41.927Z,14.50
2019-01-30T14:38:11.397Z,12.57
2019-01-30T14:40:40.784Z,13.17
2019-01-30T14:43:10.114Z,12.33
2019-01-30T14:45:39.344Z,12.63
2019-01-30T14:48:08.701Z,13.17
2019-01-30T14:50:38.190Z,12.90
2019-01-30T14:53:07.395Z,12.30
2019-01-30T14:55:36.802Z,12.50
2019-01-30T14:58:08.983Z,15.20
2019-01-30T15:00:39.627Z,13.13
2019-01-30T15:03:09.349Z,13.43
2019-01-30T15:05:38.662Z,13.10
2019-01-30T15:08:07.886Z,12.70
2019-01-30T15:10:37.184Z,12.67
2019-01-30T15:13:07.555Z,15.37
2019-01-30T15:15:36.799Z,14.53
2019-01-30T15:18:07.045Z,14.40
2019-01-30T15:20:37.162Z,11.00
2019-01-30T15:23:07.584Z,13.50
2019-01-30T15:25:36.830Z,14.00
2019-01-30T15:28:06.408Z,18.90
2019-01-30T15:30:38.138Z,14.33
2019-01-30T15:33:07.821Z,14.13
2019-01-30T15:35:37.070Z,15.13
2019-01-30T15:38:08.413Z,12.60
2019-01-30T15:40:37.719Z,14.77
2019-01-30T15:43:07.038Z,13.43
2019-01-30T15:45:36.274Z,13.93
2019-01-30T15:48:07.996Z,14.07
2019-01-30T15:50:38.479Z,14.07
2019-01-30T15:53:13.801Z,12.30
2019-01-30T15:55:43.704Z,14.83
2019-01-30T15:58:13.233Z,13.57
2019-01-30T16:00:45.236Z,17.87
2019-01-30T16:03:15.833Z,13.80
2019-01-30T16:05:45.482Z,14.13
2019-01-30T16:08:14.707Z,13.63
2019-01-30T16:10:45.382Z,15.03
2019-01-30T16:13:14.829Z,16.80
2019-01-30T16:15:54.432Z,12.13
2019-01-30T16:18:24.098Z,12.70
2019-01-30T16:20:53.391Z,13.83
2019-01-30T16:23:22.635Z,14.33
2019-01-30T16:25:51.887Z,14.43
2019-01-30T16:28:22.003Z,14.17
2019-01-30T16:30:51.306Z,15.10
2019-01-30T16:33:20.522Z,14.47
2019-01-30T16:35:56.082Z,15.37
2019-01-30T16:38:21.249Z,15.60
2019-01-30T16:40:50.611Z,14.73
2019-01-30T16:43:19.825Z,14.70
2019-01-30T16:45:49.781Z,15.93
2019-01-30T16:48:18.987Z,14.83
2019-01-30T16:50:48.203Z,15.60
2019-01-30T16:53:19.786Z,14.20
2019-01-30T16:55:49.021Z,16.20
2019-01-30T16:58:18.292Z,15.47
2019-01-30T17:00:47.591Z,16.30
2019-01-30T17:03:16.886Z,16.57
2019-01-30T17:05:46.066Z,14.93
2019-01-30T17:08:15.306Z,18.13
2019-01-30T17:10:45.706Z,15.00
2019-01-30T17:13:14.973Z,13.90
2019-01-30T17:15:44.665Z,16.33
2019-01-30T17:18:15.037Z,18.53
2019-01-30T17:20:44.245Z,16.93
2019-01-30T17:23:13.974Z,18.47
2019-01-30T17:25:43.304Z,13.53
2019-01-30T17:28:12.641Z,15.87
2019-01-30T17:30:46.631Z,18.97
2019-01-30T17:33:15.938Z,14.87
2019-01-30T17:35:45.137Z,14.50
2019-01-30T17:38:14.469Z,15.50
2019-01-30T17:40:44.541Z,15.87
2019-01-30T17:43:13.952Z,15.83
2019-01-30T17:45:45.278Z,15.17
2019-01-30T17:48:15.546Z,15.37
2019-01-30T17:50:44.810Z,15.07
2019-01-30T17:53:14.055Z,15.73
2019-01-30T17:55:43.496Z,16.87
2019-01-30T17:58:12.701Z,17.30
2019-01-30T18:01:13.945Z,16.50
2019-01-30T18:03:43.277Z,15.20
2019-01-30T18:06:12.989Z,14.10
2019-01-30T18:08:42.349Z,14.17
2019-01-30T18:11:11.649Z,17.93
2019-01-30T18:13:40.904Z,15.60
2019-01-30T18:16:10.739Z,15.87
2019-01-30T18:18:40.100Z,15.17
2019-01-30T18:21:09.347Z,15.93
2019-01-30T18:23:38.671Z,17.83
2019-01-30T18:26:07.881Z,21.17
2019-01-30T18:28:37.132Z,19.20
2019-01-30T18:31:06.531Z,18.77
2019-01-30T18:33:35.745Z,19.10
2019-01-30T18:36:05.070Z,16.90
2019-01-30T18:38:35.968Z,18.70
2019-01-30T18:41:05.431Z,18.80
2019-01-30T18:43:34.651Z,17.50
2019-01-30T18:46:04.511Z,18.53
2019-01-30T18:48:33.736Z,18.93
2019-01-30T18:51:02.935Z,19.77
2019-01-30T18:53:32.216Z,19.33
2019-01-30T18:56:02.041Z,18.90
2019-01-30T18:58:31.332Z,17.70
2019-01-30T19:01:00.588Z,19.70
2019-01-30T19:03:29.842Z,20.23
2019-01-30T19:05:59.029Z,21.80
2019-01-30T19:08:31.197Z,21.57
2019-01-30T19:10:59.305Z,17.70
2019-01-30T19:13:28.569Z,18.83
2019-01-30T19:15:59.140Z,19.40
2019-01-30T19:18:28.335Z,20.20
2019-01-30T19:20:57.900Z,21.17
2019-01-30T19:23:27.171Z,20.20
2019-01-30T19:25:56.458Z,23.03
2019-01-30T19:28:25.849Z,18.70
2019-01-30T19:30:55.356Z,24.93
2019-01-30T19:33:24.672Z,24.27
2019-01-30T19:35:53.903Z,21.07
2019-01-30T19:38:23.172Z,24.83
2019-01-30T19:40:53.649Z,22.00
2019-01-30T19:43:23.343Z,21.10
2019-01-30T19:45:52.564Z,21.07
2019-01-30T19:48:21.799Z,19.37
2019-01-30T19:50:51.034Z,19.60
2019-01-30T19:53:20.360Z,21.87
2019-01-30T19:56:01.686Z,21.10
2019-01-30T19:58:37.838Z,20.83
2019-01-30T20:01:11.401Z,23.43
2019-01-30T20:03:44.310Z,23.57
2019-01-30T20:06:16.044Z,21.73
2019-01-30T20:09:32.239Z,21.07
2019-01-30T20:12:13.803Z,22.87
2019-01-30T20:15:25.586Z,20.30
2019-01-30T20:21:52.679Z,23.87
2019-01-30T20:24:24.741Z,22.77
2019-01-30T20:26:59.356Z,22.47
2019-01-30T20:29:32.333Z,22.77
2019-01-30T20:32:04.270Z,20.40
2019-01-30T20:34:42.719Z,20.43
2019-01-30T20:37:25.839Z,18.97
2019-01-30T20:39:55.902Z,21.70
2019-01-30T20:42:26.016Z,20.37
2019-01-30T20:44:59.308Z,17.50
2019-01-30T20:47:30.993Z,22.90
2019-01-30T20:50:00.617Z,19.07
2019-01-30T20:52:42.961Z,22.10
2019-01-30T20:58:18.300Z,19.43
2019-01-30T21:01:07.945Z,21.67
2019-01-30T21:03:43.667Z,19.20
2019-01-30T21:06:14.328Z,18.17
2019-01-30T21:08:45.428Z,20.33
2019-01-30T21:11:19.893Z,19.57
2019-01-30T21:13:52.095Z,20.93
2019-01-30T21:16:21.293Z,16.70
2019-01-30T21:18:55.105Z,17.00
2019-01-30T21:21:26.890Z,17.23
2019-01-30T21:23:58.693Z,20.57
2019-01-30T21:26:28.580Z,18.70
2019-01-30T21:28:59.396Z,17.50
2019-01-30T21:31:35.559Z,17.33
2019-01-30T21:34:16.017Z,18.90
2019-01-30T21:36:53.338Z,16.40
2019-01-30T21:39:24.251Z,15.97
2019-01-30T21:41:53.462Z,16.53
2019-01-30T21:44:25.045Z,17.77
2019-01-30T21:46:54.377Z,19.60
2019-01-30T21:49:25.801Z,15.90
2019-01-30T21:52:05.983Z,18.50
2019-01-30T21:54:38.058Z,14.87
2019-01-30T21:57:37.387Z,15.47
2019-01-30T22:00:11.187Z,15.87
2019-01-30T22:02:43.242Z,14.90
2019-01-30T22:05:26.924Z,19.13
2019-01-30T22:08:01.125Z,14.30
2019-01-30T22:10:30.445Z,16.77
2019-01-30T22:13:00.853Z,15.33
2019-01-30T22:15:30.527Z,14.43
2019-01-30T22:17:59.940Z,12.67
2019-01-30T22:20:29.834Z,14.80
2019-01-30T22:22:59.242Z,17.37
2019-01-30T22:25:29.023Z,13.73
2019-01-30T22:28:00.133Z,17.17
2019-01-30T22:30:32.015Z,14.87
2019-01-30T22:33:04.841Z,14.43
2019-01-30T22:35:34.212Z,13.93
2019-01-30T22:38:11.975Z,14.23
2019-01-30T22:40:38.498Z,15.37
2019-01-30T22:43:19.563Z,16.10
2019-01-30T22:45:50.642Z,14.83
2019-01-30T22:48:23.543Z,16.43
2019-01-30T22:50:54.812Z,14.73
2019-01-30T22:53:28.168Z,15.53
2019-01-30T22:55:57.504Z,14.60
2019-01-30T22:58:29.157Z,14.67
2019-01-30T23:01:33.580Z,13.97
2019-01-30T23:04:46.453Z,14.33
2019-01-30T23:08:03.046Z,14.13
2019-01-30T23:11:08.294Z,14.60
2019-01-30T23:14:01.104Z,14.90
2019-01-30T23:17:32.639Z,12.47
2019-01-30T23:20:22.867Z,11.73
2019-01-30T23:23:54.074Z,16.57
2019-01-30T23:26:33.793Z,18.63
2019-01-30T23:29:41.349Z,14.40
2019-01-30T23:32:33.616Z,15.23
2019-01-30T23:35:33.601Z,13.13
2019-01-30T23:38:52.927Z,12.07
2019-01-30T23:41:36.886Z,11.93
2019-01-30T23:44:18.848Z,13.17
2019-01-30T23:47:17.522Z,14.20
2019-01-30T23:50:21.431Z,14.03
2019-01-30T23:53:26.289Z,15.17
2019-01-30T23:56:08.799Z,15.53
2019-01-30T23:59:14.942Z,14.97
